• Join FlightAware (Why Join?)
  • Login
  • US Flag GB Flag 
08:13 EDT


 

Airport Tracker/Info


-or-


 

Live Flight TrackerFlight Track Log ✈ SWA1223 ✈ 24-Apr-2013 ✈ KPHX - KEWR

Flight Track Log - Related Links

Times and Time Zones

All times are in EDT time to prevent confusion due to time zone crossing. See the SWA1223 flight status page for this flight to view local times or setup timezone preferences in your user account.

Time Position Orientation Groundspeed Altitude Reporting Facility
EDT Latitude Longitude Course Direction KTS MPH feet Rate Location/Type
13:24 33.4333 -111.9833 90° East 176 203 2,000  Level Phoenix TRACON
13:24 33.4333 -111.9333 90° East 186 214 3,000 1,500 Climbing Phoenix TRACON
13:25 33.4333 -111.8500 90° East 268 308 4,600 1,560 Climbing Phoenix TRACON
13:26 33.4303 -111.8333 102° East 270 311 5,300 2,640 Climbing Albuquerque Center
13:27 33.4050 -111.7314 107° East 273 314 8,600 2,580 Climbing Albuquerque Center
13:28 33.4303 -111.6333 73° East 311 358 10,700 1,980 Climbing Albuquerque Center
13:29 33.4622 -111.5225 71° East 355 409 12,700 2,220 Climbing Albuquerque Center
13:30 33.4950 -111.4039 72° East 376 433 15,400 2,460 Climbing Albuquerque Center
13:31 33.5147 -111.2708 80° East 408 470 17,800 2,400 Climbing Albuquerque Center
13:32 33.5297 -111.1322 83° East 422 486 20,400 2,460 Climbing Albuquerque Center
13:33 33.5489 -110.9572 82° East 442 509 23,000 2,220 Climbing Albuquerque Center
13:34 33.5833 -110.8117 74° East 452 520 25,000 1,860 Climbing Albuquerque Center
13:35 33.6294 -110.6672 69° East 462 532 26,900 1,740 Climbing Albuquerque Center
13:36 33.6761 -110.5219 69° East 467 537 28,700 1,500 Climbing Albuquerque Center
13:37 33.7261 -110.3647 69° East 477 549 30,100 1,200 Climbing Albuquerque Center
13:38 33.7753 -110.2100 69° East 491 565 31,200 1,260 Climbing Albuquerque Center
13:39 33.8381 -110.0192 68° East 508 585 32,800 1,320 Climbing Albuquerque Center
13:40 33.8878 -109.8575 70° East 516 594 34,000 1,200 Climbing Albuquerque Center
13:41 33.9397 -109.6969 69° East 518 596 35,400 1,260 Climbing Albuquerque Center
13:42 33.9894 -109.5364 69° East 517 595 36,700 720 Climbing Albuquerque Center
13:43 34.0394 -109.3756 69° East 515 593 37,000 120 Climbing Albuquerque Center
13:44 34.0972 -109.1822 70° East 514 592 37,000  Level Albuquerque Center
13:45 34.1386 -109.0164 73° East 516 594 37,000  Level Albuquerque Center
13:47 34.1814 -108.8522 72° East 517 595 37,000  Level Albuquerque Center
13:48 34.2256 -108.6886 72° East 517 595 37,000  Level Albuquerque Center
13:49 34.2683 -108.5258 72° East 516 594 37,000  Level Albuquerque Center
13:50 34.3117 -108.3600 72° East 515 593 37,000  Level Albuquerque Center
13:51 34.3625 -108.1617 73° East 516 594 37,000  Level Albuquerque Center
13:52 34.4050 -107.9944 73° East 519 597 37,000  Level Albuquerque Center
13:53 34.4478 -107.8250 73° East 525 604 37,000  Level Albuquerque Center
13:54 34.4900 -107.6561 73° East 526 605 37,000  Level Albuquerque Center
13:56 34.5747 -107.3183 73° East 525 604 37,000  Level Albuquerque Center
13:57 34.6233 -107.1161 74° East 525 604 37,000  Level Albuquerque Center
13:58 34.6650 -106.9472 73° East 526 605 37,000  Level Albuquerque Center
13:59 34.7036 -106.7781 74° East 526 605 37,000  Level Albuquerque Center
14:00 34.7444 -106.6111 73° East 524 603 37,000  Level Albuquerque Center
14:01 34.7844 -106.4425 74° East 525 604 37,000  Level Albuquerque Center
14:02 34.8364 -106.2392 73° East 527 606 37,000  Level Albuquerque Center
14:03 34.9053 -106.0850 61° Northeast 522 601 37,000  Level Albuquerque Center
14:04 34.9744 -105.9311 61° Northeast 520 598 37,000  Level Albuquerque Center
14:05 35.0506 -105.7644 61° Northeast 523 602 37,000  Level Albuquerque Center
14:06 35.1203 -105.6092 61° Northeast 519 597 37,000  Level Albuquerque Center
14:07 35.1889 -105.4544 61° Northeast 515 593 37,000  Level Albuquerque Center
14:08 35.2583 -105.2981 61° Northeast 516 594 37,000  Level Albuquerque Center
14:09 35.3264 -105.1417 62° Northeast 515 593 37,000  Level Albuquerque Center
14:10 35.4058 -104.9594 62° Northeast 514 592 37,000  Level Albuquerque Center
14:11 35.4744 -104.8008 62° Northeast 516 594 37,000  Level Albuquerque Center
14:12 35.5439 -104.6425 62° Northeast 518 596 37,000  Level Albuquerque Center
14:13 35.6122 -104.4844 62° Northeast 517 595 37,000  Level Albuquerque Center
14:14 35.6806 -104.3250 62° Northeast 517 595 37,000  Level Albuquerque Center
14:15 35.7481 -104.1661 62° Northeast 516 594 37,000  Level Albuquerque Center
14:16 35.8156 -104.0081 62° Northeast 514 592 37,000  Level Albuquerque Center
14:17 35.8822 -103.8492 63° Northeast 515 593 37,000  Level Albuquerque Center
14:19 35.9497 -103.6911 62° Northeast 515 593 37,000  Level Albuquerque Center
14:20 36.0156 -103.5308 63° Northeast 517 595 37,000  Level Albuquerque Center
14:21 36.0828 -103.3708 62° Northeast 519 597 37,000  Level Albuquerque Center
14:22 36.1603 -103.1833 63° Northeast 519 597 37,000  Level Albuquerque Center
14:23 36.2264 -103.0217 63° Northeast 521 600 37,000  Level Albuquerque Center
14:24 36.2892 -102.8703 63° Northeast 521 600 37,000  Level Albuquerque Center
14:25 36.3547 -102.7103 63° Northeast 521 600 37,000  Level Albuquerque Center
14:26 36.4200 -102.5494 63° Northeast 521 600 37,000  Level Albuquerque Center
14:27 36.4856 -102.3878 63° Northeast 523 602 37,000  Level Albuquerque Center
14:28 36.5625 -102.1953 63° Northeast 519 597 37,000  Level Albuquerque Center
14:29 36.6286 -102.0314 63° Northeast 520 598 37,000  Level Albuquerque Center
14:30 36.6894 -101.8764 64° Northeast 521 600 37,000  Level Albuquerque Center
14:31 36.7608 -101.6950 64° Northeast 522 601 37,000  Level Albuquerque Center
14:32 36.8222 -101.5389 64° Northeast 524 603 37,000  Level Albuquerque Center
14:33 36.8839 -101.3828 64° Northeast 525 604 37,000  Level Albuquerque Center
14:34 36.9344 -101.2506 64° Northeast 527 606 37,000  Level Kansas City Center
14:35 37.0058 -101.0700 64° Northeast 523 602 37,000  Level Kansas City Center
14:36 37.0578 -100.9092 68° East 526 605 37,000  Level Kansas City Center
14:37 37.1022 -100.7114 74° East 532 612 37,000  Level Kansas City Center
14:38 37.1397 -100.5422 74° East 531 611 37,000  Level Kansas City Center
14:39 37.1833 -100.3431 75° East 532 612 37,000  Level Kansas City Center
14:40 37.2197 -100.1714 75° East 534 615 37,000  Level Kansas City Center
14:41 37.2625 -99.9689 75° East 538 619 37,000  Level Kansas City Center
14:42 37.2992 -99.7964 75° East 538 619 37,000  Level Kansas City Center
14:43 37.3419 -99.5928 75° East 541 623 37,000  Level Kansas City Center
14:44 37.3783 -99.4356 74° East 545 627 37,000  Level Kansas City Center
14:45 37.4175 -99.2514 75° East 547 629 37,000  Level Kansas City Center
14:46 37.4606 -99.0322 76° East 541 623 37,000  Level Kansas City Center
14:47 37.4956 -98.8458 77° East 545 627 37,000  Level Kansas City Center
14:48 37.5339 -98.6611 75° East 545 627 37,000  Level Kansas City Center
14:49 37.5714 -98.4767 76° East 546 628 37,000  Level Kansas City Center
14:50 37.6069 -98.2919 76° East 546 628 37,000  Level Kansas City Center
14:51 37.6447 -98.1006 76° East 546 628 37,000  Level Kansas City Center
14:52 37.6869 -97.8758 77° East 547 629 37,000  Level Kansas City Center
14:53 37.7247 -97.6872 76° East 552 635 37,000  Level Kansas City Center
14:54 37.7589 -97.4983 77° East 550 633 37,000  Level Kansas City Center
14:55 37.7928 -97.3294 76° East 554 638 37,000  Level Kansas City Center
14:56 37.8328 -97.1031 77° East 552 635 37,000  Level Kansas City Center
14:57 37.8664 -96.9136 77° East 554 638 37,000  Level Kansas City Center
14:58 37.9006 -96.7253 77° East 552 635 37,000  Level Kansas City Center
14:59 37.9325 -96.5344 78° East 554 638 37,000  Level Kansas City Center
15:01 37.9642 -96.3431 78° East 556 640 37,000  Level Kansas City Center
15:02 38.0022 -96.1181 78° East 555 639 37,000  Level Kansas City Center
15:03 38.0319 -95.9381 78° East 553 636 37,000  Level Kansas City Center
15:04 38.0622 -95.7539 78° East 557 641 37,000  Level Kansas City Center
15:05 38.1011 -95.5414 77° East 555 639 37,000  Level Kansas City Center
15:06 38.1378 -95.3261 78° East 558 642 37,000  Level Kansas City Center
15:07 38.1675 -95.1419 78° East 558 642 37,000  Level Kansas City Center
15:08 38.1981 -94.9589 78° East 555 639 37,000  Level Kansas City Center
15:09 38.2328 -94.7425 78° East 559 643 37,000  Level Kansas City Center
15:10 38.2614 -94.5553 79° East 562 647 37,000  Level Kansas City Center
15:11 38.3067 -94.3417 75° East 561 646 37,000  Level Kansas City Center
15:12 38.3464 -94.1611 74° East 557 641 37,000  Level Kansas City Center
15:13 38.3972 -93.9386 74° East 556 640 37,000  Level Kansas City Center
15:14 38.4397 -93.7497 74° East 554 638 37,000  Level Kansas City Center
15:15 38.4814 -93.5611 74° East 550 633 37,000  Level Kansas City Center
15:16 38.5219 -93.3731 75° East 548 631 37,000  Level Kansas City Center
15:17 38.5636 -93.1856 74° East 546 628 37,000  Level Kansas City Center
15:18 38.6044 -92.9997 74° East 542 624 37,000  Level Kansas City Center
15:19 38.6436 -92.8117 75° East 542 624 37,000  Level Kansas City Center
15:20 38.6836 -92.6250 75° East 541 623 37,000  Level Kansas City Center
15:21 38.7225 -92.4364 75° East 542 624 37,000  Level Kansas City Center
15:22 38.7694 -92.2081 75° East 545 627 37,000  Level Kansas City Center
15:23 38.8069 -92.0211 76° East 540 621 37,000  Level Kansas City Center
15:24 38.8447 -91.8319 76° East 542 624 37,000  Level Kansas City Center
15:25 38.8781 -91.6672 75° East 541 623 37,000  Level Kansas City Center
15:26 38.9239 -91.4433 75° East 541 623 37,000  Level Kansas City Center
15:27 38.9603 -91.2556 76° East 540 621 37,000  Level Kansas City Center
15:28 38.9981 -91.0694 75° East 539 620 37,000  Level Kansas City Center
15:29 39.0347 -90.8817 76° East 539 620 37,000  Level Kansas City Center
15:31 39.0706 -90.6936 76° East 538 619 37,000  Level Kansas City Center
15:32 39.1083 -90.5044 76° East 541 623 37,000  Level Kansas City Center
15:33 39.1439 -90.3133 76° East 542 624 37,000  Level Kansas City Center
15:34 39.1814 -90.1211 76° East 545 627 37,000  Level Kansas City Center
15:35 39.2239 -89.8897 77° East 549 632 37,000  Level Kansas City Center
15:36 39.2575 -89.6967 77° East 550 633 37,000  Level Kansas City Center
15:37 39.2931 -89.5067 76° East 547 629 37,000  Level Kansas City Center
15:38 39.3272 -89.3144 77° East 548 631 37,000  Level Kansas City Center
15:39 39.3611 -89.1239 77° East 547 629 37,000  Level Kansas City Center
15:40 39.3944 -88.9328 77° East 545 627 37,000  Level Kansas City Center
15:41 39.4336 -88.7114 77° East 543 625 37,000  Level Kansas City Center
15:42 39.4672 -88.5219 77° East 545 627 37,000  Level Kansas City Center
15:43 39.4997 -88.3311 77° East 543 625 37,000  Level Kansas City Center
15:45 39.5581 -87.9814 78° East 547 629 37,000  Level Indianapolis Center
15:46 39.5950 -87.7550 78° East 547 629 37,000  Level Indianapolis Center
15:47 39.6278 -87.5614 78° East 547 629 37,000  Level Indianapolis Center
15:48 39.6581 -87.3675 78° East 544 626 37,000  Level Indianapolis Center
15:49 39.6894 -87.1728 78° East 548 631 37,000  Level Indianapolis Center
15:50 39.7200 -86.9822 78° East 538 619 37,000  Level Indianapolis Center
15:51 39.7500 -86.7906 78° East 538 619 37,000  Level Indianapolis Center
15:52 39.7842 -86.5683 79° East 533 613 37,000  Level Indianapolis Center
15:53 39.8133 -86.3756 79° East 528 608 37,000  Level Indianapolis Center
15:54 39.8533 -86.1869 75° East 526 605 37,000  Level Indianapolis Center
15:55 39.8928 -86.0003 75° East 526 605 37,000  Level Indianapolis Center
15:56 39.9317 -85.8150 75° East 527 606 37,000  Level Indianapolis Center
15:57 39.9692 -85.6300 75° East 526 605 37,000  Level Indianapolis Center
15:58 40.0081 -85.4453 75° East 526 605 37,000  Level Indianapolis Center
15:59 40.0458 -85.2594 75° East 527 606 37,000  Level Indianapolis Center
16:00 40.0847 -85.0733 75° East 528 608 37,000  Level Indianapolis Center
16:01 40.1283 -84.8567 75° East 532 612 37,000  Level Indianapolis Center
16:02 40.1650 -84.6697 76° East 528 608 37,000  Level Indianapolis Center
16:03 40.2014 -84.4825 76° East 527 606 37,000  Level Indianapolis Center
16:04 40.2386 -84.2936 75° East 528 608 37,000  Level Indianapolis Center
16:05 40.2753 -84.1053 76° East 527 606 37,000  Level Indianapolis Center
16:06 40.3392 -83.9306 64° Northeast 522 601 37,000  Level Indianapolis Center
16:08 40.4164 -83.7639 59° Northeast 524 603 37,000  Level Indianapolis Center
16:09 40.4919 -83.5967 59° Northeast 525 604 37,000  Level Indianapolis Center
16:10 40.5675 -83.4311 59° Northeast 522 601 37,000  Level Indianapolis Center
16:11 40.6558 -83.2369 59° Northeast 523 602 37,000  Level Indianapolis Center
16:11 40.6817 -83.1789 60° Northeast 523 602 37,000  Level Cleveland Center
16:12 40.7583 -83.0144 58° Northeast 523 602 37,000  Level Cleveland Center
16:13 40.8328 -82.8444 60° Northeast 523 602 37,000  Level Cleveland Center
16:14 40.8961 -82.6928 61° Northeast 523 602 37,000  Level Cleveland Center
16:15 40.9806 -82.5083 59° Northeast 528 608 37,000  Level Cleveland Center
16:16 41.0564 -82.3344 60° Northeast 540 621 37,000  Level Cleveland Center
16:17 41.1319 -82.1600 60° Northeast 535 616 37,000  Level Cleveland Center
16:18 41.2050 -81.9906 60° Northeast 542 624 37,000  Level Cleveland Center
16:19 41.2819 -81.8183 59° Northeast 537 618 37,000  Level Cleveland Center
16:20 41.3567 -81.6453 60° Northeast 537 618 37,000  Level Cleveland Center
16:21 41.4061 -81.4828 68° East 529 609 37,000  Level Cleveland Center
16:22 41.4283 -81.2922 81° East 520 598 37,000  Level Cleveland Center
16:23 41.4544 -81.0844 80° East 513 590 37,000  Level Cleveland Center
16:24 41.4758 -80.8964 81° East 513 590 37,000  Level Cleveland Center
16:25 41.4972 -80.7078 81° East 524 603 37,000  Level Cleveland Center
16:26 41.5200 -80.5167 81° East 519 597 37,000  Level Cleveland Center
16:27 41.5367 -80.3667 82° East 519 597 37,000  Level Cleveland Center
16:28 41.5589 -80.1586 82° East 519 597 37,000  Level Cleveland Center
16:29 41.5789 -79.9725 82° East 519 597 37,000 -240 Level Cleveland Center
16:30 41.5986 -79.7889 82° East 507 583 36,600 -540 Descending Cleveland Center
16:31 41.6097 -79.6056 85° East 499 574 36,000 -300 Descending Cleveland Center
16:32 41.5956 -79.4281 96° East 487 560 36,000  Level Cleveland Center
16:33 41.5811 -79.2536 96° East 480 552 36,000  Level Cleveland Center
16:34 41.5644 -79.0789 97° East 480 552 36,000  Level Cleveland Center
16:35 41.5517 -78.9044 96° East 480 552 36,000  Level Cleveland Center
16:36 41.5322 -78.7331 99° East 480 552 36,000  Level Cleveland Center
16:37 41.5169 -78.5558 97° East 480 552 36,000 -240 Level Cleveland Center
16:38 41.5011 -78.3761 97° East 480 552 35,600 -600 Descending Cleveland Center
16:39 41.4881 -78.2489 98° East 481 554 35,100 -960 Descending New York Center
16:40 41.4683 -78.0611 98° East 495 570 34,100 -1,380 Descending New York Center
16:41 41.4508 -77.8708 97° East 505 581 32,400 -1,560 Descending New York Center
16:42 41.4344 -77.6892 97° East 505 581 31,000 -720 Descending New York Center
16:43 41.4172 -77.5186 98° East 505 581 31,000  Level New York Center
16:44 41.3950 -77.3200 98° East 500 575 31,000  Level New York Center
16:45 41.3758 -77.1328 98° East 500 575 31,000 -660 Level New York Center
16:46 41.3564 -76.9514 98° East 500 575 29,700 -1,260 Descending New York Center
16:47 41.3358 -76.7808 99° East 494 568 28,500 -1,140 Descending New York Center
16:48 41.2942 -76.6142 108° East 476 548 27,500 -1,620 Descending New York Center
16:49 41.2500 -76.4531 110° East 471 542 25,300 -2,340 Descending New York Center
16:50 41.2056 -76.2947 110° East 461 531 22,900 -2,460 Descending New York Center
16:51 41.1667 -76.1428 109° East 449 517 20,500 -1,980 Descending New York Center
16:52 41.1275 -75.9936 109° East 432 497 19,000 -1,560 Descending New York Center
16:53 41.0878 -75.8503 110° East 420 483 17,400 -1,920 Descending New York Center
16:54 41.0536 -75.7211 109° East 414 476 15,100 -2,220 Descending New York Center
16:55 41.0156 -75.5836 110° East 409 471 13,000 -1,140 Descending New York Center
16:56 40.9736 -75.4375 111° Southeast 395 455 12,900 -960 Descending New York Center
16:57 40.9386 -75.3197 111° Southeast 390 449 11,200 -1,380 Descending New York Center
16:58 40.9058 -75.1969 109° East 377 434 10,200 -1,200 Descending New York Center
16:59 40.8706 -75.0767 111° Southeast 329 379 8,900 -1,380 Descending New York Center
17:00 40.8347 -74.9728 114° Southeast 310 357 7,500 -960 Descending New York Center
17:01 40.7944 -74.8744 118° Southeast 294 338 7,000 -300 Descending New York Center
17:02 40.7658 -74.7958 116° Southeast 283 326 7,000 -420 Level New York Center
17:03 40.7314 -74.7064 117° Southeast 258 297 6,200 -540 Descending New York Center
17:04 40.7300 -74.6242 91° East 245 282 6,000 -120 Descending New York Center
17:04 40.7667 -74.6000 27° Northeast 283 326 6,100 60 Climbing New York TRACON
17:05 40.8333 -74.5667 21° North 268 308 6,100 -480 Level New York TRACON
17:06 40.9000 -74.5500 11° North 262 302 5,200 -720 Descending New York TRACON
17:07 40.9428 -74.5536 356° North 252 290 5,000 -180 Descending New York Center
17:08 41.0136 -74.5467 North 252 290 5,000  Level New York Center
17:09 41.0717 -74.4978 32° Northeast 252 290 5,000  Level New York Center
17:10 41.0806 -74.4128 82° East 236 272 5,000 60 Level New York Center
17:10 41.0667 -74.3667 112° Southeast 245 282 5,100 60 Climbing New York TRACON
17:11 41.0333 -74.3000 124° Southeast 236 272 5,100 -300 Level New York TRACON
17:12 41.0167 -74.2333 108° East 193 222 4,600 -540 Descending New York TRACON
17:13 40.9833 -74.1833 131° Southeast 180 207 4,100 -300 Descending New York TRACON
17:14 40.9500 -74.1333 131° Southeast 181 208 4,100 -420 Level New York TRACON
17:15 40.9167 -74.1000 143° Southeast 172 198 3,300 -540 Descending New York TRACON
17:16 40.8667 -74.0833 166° South 165 190 3,100 -120 Descending New York TRACON
17:17 40.8167 -74.0833 180° South 163 188 3,100 -480 Level New York TRACON
17:18 40.7833 -74.1000 201° Southwest 166 191 2,200 -900 Descending New York TRACON
17:19 40.7500 -74.1333 217° Southwest 156 180 1,400 -900 Descending New York TRACON
17:20 40.7167 -74.1500 201° Southwest 135 155 400 -1,020 Descending New York TRACON
17:22 40.6925 -74.1687 102° East  Level Estimated